Terminal Aerodrome Forecast
Issued by NWS North Platte, NE

Home | Current Version | Previous Version | Text Only | Print | Product List | Glossary Off
Versions: 1 2 3 4 5 6 7 8 9 10 11 12 13 14 15 16 17 18

936
FTUS43 KLBF 230600 AAA
TAFVTN
TAF AMD
KVTN 230600Z 2306/2406 06008KT 2SM BR OVC003
      TEMPO 2306/2309 1/2SM FG VV001
     FM230900 07008KT 2SM BR OVC003
      TEMPO 2309/2312 1/2SM FG VV001
     FM231200 10008KT 2SM BR OVC003
     FM231500 14011KT P6SM SCT015 BKN150
     FM231800 16017G24KT P6SM BKN150=

USA.gov is the U.S. government's official web portal to all federal, state and local government web resources and services.